Terminal Aerodrome Forecast
Issued by NWS

Home | Current Version | Previous Version | Text Only | Print | Product List | Glossary On
Versions: 1 2 3 4 5 6 7 8 9 10 11 12 13 14 15 16 17 18 19 20 21 22 23 24 25 26 27 28 29 30
000
FTUS44 KHGX 290903 AAA
TAFUTS
TAF AMD
KUTS 290903Z 2909/3006 19006KT P6SM SCT020 WS020/22040KT
     FM291500 19010G16KT P6SM SCT030
     FM300100 18009KT P6SM BKN030=

USA.gov is the U.S. government's official web portal to all federal, state and local government web resources and services.